Star Alliance - SBPL Airport Info

    SBPL (Senador Nilo Coelho Airport)  Login to use Map Selector

  RUNWAY INFORMATION    |    Airport Elevation : 1263ft    |    LAT : -9.3624095916748  /  LON : -40.5690994262695
Runway Number 13 / 31 Runway Width 148' Runway Length 9055'
Lighted Runway No Runway StatusOpen Runway Surface Asphalt
  CLOSE ALTERNATE AIRPORTS
ICAODistanceAirport NameLongest RWRW SurfaceMAP
SB8M16NMSobradinho3478FTAsphalt
SB1F25NMCasa Nova3695FTAsphalt
SB1E31NMJuazeiro4593FTAsphalt
SNMI49NMMina Caraíba Airport5741FTAsphalt
SB1G68NMJmf4758FTAsphalt
SNBF70NMSenhor Do Bonfim3510FTAsphalt
SNLT80NMPaulistana Airport3478FTGravel
SB2J93NMRemanso4429FTAsphalt
SB3U93NMAbare3937FTAsphalt
SBW293NMOuricuri4245FTAsphalt
SSQP101NMMonte Santo Airport3281FTOther
SNFR102NMBelem De Sao Francisco3609FTAsphalt
SB1L106NMAraripina4091FTAsphalt
SNJB108NMJacobina Airport4101FTAsphalt
  AIRPORT WEATHER
86°F | 30°C
Temperature
66%
Humidity
29.82" | 0mb
Pressure
6sm
Visibility
VFR
Flight Rules
SCT @ 2500ft
Initial Clouds
FAIR
Conditions
Wind Info
11/27/22 19:00Z
Updated

SBPL 271900Z 17002KT 9999 SCT025 BKN070 30/23 Q1010
  AIRPORT FREQUENCIES
NameFrequency
MULTICOM125.700
  PILOT ENTERED AIRPORT INFORMATION SEE ALL PILOT ENTERED AIRPORT INFO

Powered by Virtual Airlines Manager